sensor_id;sensor_type;location;lat;lon;timestamp;pressure;altitude;pressure_sealevel;temperature;humidity
40592;BME280;26301;42.832;23.918;2023-04-29T00:00:00;93250.31;;;2.40;80.79
40592;BME280;26301;42.832;23.918;2023-04-29T00:02:26;93247.97;;;2.39;80.66
40592;BME280;26301;42.832;23.918;2023-04-29T00:04:53;93253.03;;;2.32;80.49
40592;BME280;26301;42.832;23.918;2023-04-29T00:07:19;93264.06;;;2.39;80.02
40592;BME280;26301;42.832;23.918;2023-04-29T00:09:45;93214.34;;;2.07;79.13
40592;BME280;26301;42.832;23.918;2023-04-29T00:12:11;93247.09;;;2.32;79.33
40592;BME280;26301;42.832;23.918;2023-04-29T00:14:37;93254.59;;;2.33;79.17
40592;BME280;26301;42.832;23.918;2023-04-29T00:17:06;93249.44;;;2.26;79.51
40592;BME280;26301;42.832;23.918;2023-04-29T00:19:32;93223.38;;;2.10;79.50
40592;BME280;26301;42.832;23.918;2023-04-29T00:21:58;93261.19;;;2.27;79.83
40592;BME280;26301;42.832;23.918;2023-04-29T00:24:24;93249.75;;;2.17;79.07
40592;BME280;26301;42.832;23.918;2023-04-29T00:26:50;93247.41;;;2.22;78.34
40592;BME280;26301;42.832;23.918;2023-04-29T00:29:16;93252.50;;;2.22;79.32
40592;BME280;26301;42.832;23.918;2023-04-29T00:31:43;93233.56;;;2.10;79.75
40592;BME280;26301;42.832;23.918;2023-04-29T00:34:09;93206.16;;;1.90;80.00
40592;BME280;26301;42.832;23.918;2023-04-29T00:36:35;93239.38;;;2.03;80.18
40592;BME280;26301;42.832;23.918;2023-04-29T00:39:01;93223.66;;;1.78;79.19
40592;BME280;26301;42.832;23.918;2023-04-29T00:41:29;93218.84;;;1.69;79.74
40592;BME280;26301;42.832;23.918;2023-04-29T00:43:56;93198.06;;;1.50;81.47
40592;BME280;26301;42.832;23.918;2023-04-29T00:46:22;93189.19;;;1.46;81.72
40592;BME280;26301;42.832;23.918;2023-04-29T00:48:48;93186.41;;;1.41;81.03
40592;BME280;26301;42.832;23.918;2023-04-29T00:51:15;93214.47;;;1.63;81.12
40592;BME280;26301;42.832;23.918;2023-04-29T00:53:42;93224.09;;;1.67;81.73
40592;BME280;26301;42.832;23.918;2023-04-29T00:56:09;93189.91;;;1.40;80.83
40592;BME280;26301;42.832;23.918;2023-04-29T00:58:35;93211.31;;;1.60;82.08
40592;BME280;26301;42.832;23.918;2023-04-29T01:01:03;93211.84;;;1.56;82.84
40592;BME280;26301;42.832;23.918;2023-04-29T01:03:30;93207.19;;;1.59;82.53
40592;BME280;26301;42.832;23.918;2023-04-29T01:06:11;93201.84;;;1.54;81.99
40592;BME280;26301;42.832;23.918;2023-04-29T01:11:58;93211.47;;;1.59;82.29
40592;BME280;26301;42.832;23.918;2023-04-29T01:14:32;93123.09;;;1.02;82.55
40592;BME280;26301;42.832;23.918;2023-04-29T01:17:10;93171.41;;;1.31;82.84
40592;BME280;26301;42.832;23.918;2023-04-29T01:19:54;93170.34;;;1.26;83.06
40592;BME280;26301;42.832;23.918;2023-04-29T01:22:26;93209.75;;;1.45;82.70
40592;BME280;26301;42.832;23.918;2023-04-29T01:24:52;93194.16;;;1.33;83.48
40592;BME280;26301;42.832;23.918;2023-04-29T01:38:38;93163.56;;;0.82;86.37
40592;BME280;26301;42.832;23.918;2023-04-29T01:43:56;93098.66;;;0.41;87.14
40592;BME280;26301;42.832;23.918;2023-04-29T01:46:23;93191.19;;;1.00;87.98
40592;BME280;26301;42.832;23.918;2023-04-29T01:48:52;93156.53;;;0.84;87.39
40592;BME280;26301;42.832;23.918;2023-04-29T01:51:19;93174.09;;;0.94;87.84
40592;BME280;26301;42.832;23.918;2023-04-29T01:53:45;93205.97;;;1.11;87.71
40592;BME280;26301;42.832;23.918;2023-04-29T01:56:11;93200.66;;;1.06;87.64
40592;BME280;26301;42.832;23.918;2023-04-29T01:58:37;93171.88;;;0.90;88.09
40592;BME280;26301;42.832;23.918;2023-04-29T02:01:03;93199.41;;;1.17;88.58
40592;BME280;26301;42.832;23.918;2023-04-29T02:03:29;93163.38;;;0.98;87.95
40592;BME280;26301;42.832;23.918;2023-04-29T02:05:55;93189.00;;;1.11;87.34
40592;BME280;26301;42.832;23.918;2023-04-29T02:08:22;93157.84;;;0.95;86.62
40592;BME280;26301;42.832;23.918;2023-04-29T02:10:54;93148.81;;;0.92;85.66
40592;BME280;26301;42.832;23.918;2023-04-29T02:13:20;93176.69;;;1.15;86.63
40592;BME280;26301;42.832;23.918;2023-04-29T02:15:47;93172.56;;;1.14;87.54
40592;BME280;26301;42.832;23.918;2023-04-29T02:18:13;93153.03;;;1.00;87.94
40592;BME280;26301;42.832;23.918;2023-04-29T02:20:39;93182.03;;;1.20;87.77
40592;BME280;26301;42.832;23.918;2023-04-29T02:23:04;93187.66;;;1.16;88.45
40592;BME280;26301;42.832;23.918;2023-04-29T02:25:31;93182.06;;;1.05;89.19
40592;BME280;26301;42.832;23.918;2023-04-29T02:27:57;93183.44;;;1.08;90.12
40592;BME280;26301;42.832;23.918;2023-04-29T02:30:23;93169.16;;;0.92;90.03
40592;BME280;26301;42.832;23.918;2023-04-29T02:32:49;93166.19;;;0.88;90.13
40592;BME280;26301;42.832;23.918;2023-04-29T02:35:15;93176.28;;;0.97;89.71
40592;BME280;26301;42.832;23.918;2023-04-29T02:37:41;93174.09;;;0.94;89.56
40592;BME280;26301;42.832;23.918;2023-04-29T02:40:08;93177.06;;;0.97;89.67
40592;BME280;26301;42.832;23.918;2023-04-29T02:42:34;93056.50;;;0.17;89.38
40592;BME280;26301;42.832;23.918;2023-04-29T02:45:00;93180.19;;;0.99;89.82
40592;BME280;26301;42.832;23.918;2023-04-29T02:47:26;93183.78;;;0.90;90.80
40592;BME280;26301;42.832;23.918;2023-04-29T02:49:52;93185.03;;;0.79;91.73
40592;BME280;26301;42.832;23.918;2023-04-29T02:52:18;93182.91;;;0.83;91.41
40592;BME280;26301;42.832;23.918;2023-04-29T02:54:44;93154.31;;;0.66;90.84
40592;BME280;26301;42.832;23.918;2023-04-29T02:57:10;93178.53;;;0.91;91.54
40592;BME280;26301;42.832;23.918;2023-04-29T02:59:36;93150.06;;;0.81;93.14
40592;BME280;26301;42.832;23.918;2023-04-29T03:02:02;93133.81;;;0.67;92.97
40592;BME280;26301;42.832;23.918;2023-04-29T03:04:29;93154.44;;;0.73;92.93
40592;BME280;26301;42.832;23.918;2023-04-29T03:06:55;93168.09;;;0.86;92.74
40592;BME280;26301;42.832;23.918;2023-04-29T03:09:22;93177.31;;;0.87;93.41
40592;BME280;26301;42.832;23.918;2023-04-29T03:11:48;93192.75;;;0.86;94.72
40592;BME280;26301;42.832;23.918;2023-04-29T03:14:15;93203.25;;;0.83;95.33
40592;BME280;26301;42.832;23.918;2023-04-29T03:16:41;93176.59;;;0.64;95.57
40592;BME280;26301;42.832;23.918;2023-04-29T03:19:07;93184.94;;;0.73;96.30
40592;BME280;26301;42.832;23.918;2023-04-29T03:21:33;93198.63;;;0.86;96.19
40592;BME280;26301;42.832;23.918;2023-04-29T03:23:59;93167.16;;;0.73;96.43
40592;BME280;26301;42.832;23.918;2023-04-29T03:26:25;93194.84;;;0.97;96.18
40592;BME280;26301;42.832;23.918;2023-04-29T03:28:51;93208.72;;;1.09;96.06
40592;BME280;26301;42.832;23.918;2023-04-29T03:31:16;93214.50;;;1.18;95.35
40592;BME280;26301;42.832;23.918;2023-04-29T03:33:42;93170.47;;;1.03;95.14
40592;BME280;26301;42.832;23.918;2023-04-29T03:36:08;93182.75;;;1.14;94.46
40592;BME280;26301;42.832;23.918;2023-04-29T03:38:35;93187.22;;;1.27;93.97
40592;BME280;26301;42.832;23.918;2023-04-29T03:41:03;93186.50;;;1.33;94.85
40592;BME280;26301;42.832;23.918;2023-04-29T03:43:28;93183.69;;;1.28;94.72
40592;BME280;26301;42.832;23.918;2023-04-29T03:45:54;93189.56;;;1.28;94.52
40592;BME280;26301;42.832;23.918;2023-04-29T03:48:20;93228.44;;;1.52;94.83
40592;BME280;26301;42.832;23.918;2023-04-29T03:50:46;93190.00;;;1.32;95.15
40592;BME280;26301;42.832;23.918;2023-04-29T03:53:15;93180.97;;;1.29;95.49
40592;BME280;26301;42.832;23.918;2023-04-29T03:55:41;93222.53;;;1.66;95.77
40592;BME280;26301;42.832;23.918;2023-04-29T03:58:07;93216.66;;;1.66;96.50
40592;BME280;26301;42.832;23.918;2023-04-29T04:00:33;93215.06;;;1.65;97.37
40592;BME280;26301;42.832;23.918;2023-04-29T04:02:59;93197.53;;;1.55;97.45
40592;BME280;26301;42.832;23.918;2023-04-29T04:05:25;93221.91;;;1.79;96.28
40592;BME280;26301;42.832;23.918;2023-04-29T04:07:51;93211.09;;;1.77;97.36
40592;BME280;26301;42.832;23.918;2023-04-29T04:10:18;93225.44;;;1.99;96.58
40592;BME280;26301;42.832;23.918;2023-04-29T04:12:44;93230.91;;;2.18;95.85
40592;BME280;26301;42.832;23.918;2023-04-29T04:15:11;93193.09;;;2.00;95.93
40592;BME280;26301;42.832;23.918;2023-04-29T04:17:37;93227.91;;;2.29;95.87
40592;BME280;26301;42.832;23.918;2023-04-29T04:20:04;93229.94;;;2.40;96.38
40592;BME280;26301;42.832;23.918;2023-04-29T04:22:30;93215.44;;;2.41;96.44
40592;BME280;26301;42.832;23.918;2023-04-29T04:24:57;93225.44;;;2.64;96.17
40592;BME280;26301;42.832;23.918;2023-04-29T04:27:22;93218.47;;;2.79;96.42
40592;BME280;26301;42.832;23.918;2023-04-29T04:29:52;93212.50;;;2.93;95.92
40592;BME280;26301;42.832;23.918;2023-04-29T04:32:19;93180.06;;;2.87;95.90
40592;BME280;26301;42.832;23.918;2023-04-29T04:34:46;93210.91;;;3.20;96.25
40592;BME280;26301;42.832;23.918;2023-04-29T04:37:13;93180.09;;;3.22;96.42
40592;BME280;26301;42.832;23.918;2023-04-29T04:39:38;93185.53;;;3.60;96.01
40592;BME280;26301;42.832;23.918;2023-04-29T04:42:04;93187.41;;;3.93;95.60
40592;BME280;26301;42.832;23.918;2023-04-29T04:44:31;93191.22;;;4.37;93.26
40592;BME280;26301;42.832;23.918;2023-04-29T04:46:58;93164.06;;;4.56;90.58
40592;BME280;26301;42.832;23.918;2023-04-29T04:49:27;93162.69;;;4.73;88.47
40592;BME280;26301;42.832;23.918;2023-04-29T04:51:53;93158.34;;;4.80;86.56
40592;BME280;26301;42.832;23.918;2023-04-29T04:54:19;93197.25;;;5.22;84.23
40592;BME280;26301;42.832;23.918;2023-04-29T04:56:44;93161.00;;;5.25;83.93
40592;BME280;26301;42.832;23.918;2023-04-29T04:59:10;93190.66;;;5.53;83.49
40592;BME280;26301;42.832;23.918;2023-04-29T05:01:36;93186.28;;;5.67;83.07
40592;BME280;26301;42.832;23.918;2023-04-29T05:04:02;93138.09;;;5.50;82.90
40592;BME280;26301;42.832;23.918;2023-04-29T05:06:28;93196.41;;;6.00;82.29
40592;BME280;26301;42.832;23.918;2023-04-29T05:08:54;93183.97;;;6.04;72.77
40592;BME280;26301;42.832;23.918;2023-04-29T05:11:21;93171.50;;;6.14;70.74
40592;BME280;26301;42.832;23.918;2023-04-29T05:13:47;93192.84;;;6.39;70.32
40592;BME280;26301;42.832;23.918;2023-04-29T05:16:13;93194.91;;;6.56;70.73
40592;BME280;26301;42.832;23.918;2023-04-29T05:18:39;93191.50;;;6.62;69.90
40592;BME280;26301;42.832;23.918;2023-04-29T05:21:09;93151.72;;;6.46;68.81
40592;BME280;26301;42.832;23.918;2023-04-29T05:23:35;93177.41;;;6.71;67.32
40592;BME280;26301;42.832;23.918;2023-04-29T05:26:01;93159.06;;;6.68;67.50
40592;BME280;26301;42.832;23.918;2023-04-29T05:28:27;93180.38;;;6.93;66.64
40592;BME280;26301;42.832;23.918;2023-04-29T05:30:54;93159.13;;;6.86;68.13
40592;BME280;26301;42.832;23.918;2023-04-29T05:33:20;93182.19;;;7.11;67.32
40592;BME280;26301;42.832;23.918;2023-04-29T05:35:46;93152.06;;;7.00;65.63
40592;BME280;26301;42.832;23.918;2023-04-29T05:38:12;93179.84;;;7.28;67.57
40592;BME280;26301;42.832;23.918;2023-04-29T05:40:41;93175.50;;;7.47;67.44
40592;BME280;26301;42.832;23.918;2023-04-29T05:43:07;93176.97;;;7.73;67.39
40592;BME280;26301;42.832;23.918;2023-04-29T05:45:35;93178.97;;;7.89;65.15
40592;BME280;26301;42.832;23.918;2023-04-29T05:48:00;93151.78;;;7.93;62.90
40592;BME280;26301;42.832;23.918;2023-04-29T05:50:26;93158.38;;;8.19;61.22
40592;BME280;26301;42.832;23.918;2023-04-29T05:52:52;93146.25;;;8.38;61.86
40592;BME280;26301;42.832;23.918;2023-04-29T05:55:19;93172.72;;;8.81;59.72
40592;BME280;26301;42.832;23.918;2023-04-29T05:57:45;93148.31;;;8.95;58.67
40592;BME280;26301;42.832;23.918;2023-04-29T06:00:11;93166.09;;;9.44;57.92
40592;BME280;26301;42.832;23.918;2023-04-29T06:02:37;93171.19;;;9.79;56.71
40592;BME280;26301;42.832;23.918;2023-04-29T06:05:07;93152.19;;;9.85;53.88
40592;BME280;26301;42.832;23.918;2023-04-29T06:07:34;93150.16;;;9.99;51.83
40592;BME280;26301;42.832;23.918;2023-04-29T06:10:01;93138.66;;;10.06;52.19
40592;BME280;26301;42.832;23.918;2023-04-29T06:12:26;93165.66;;;10.44;49.57
40592;BME280;26301;42.832;23.918;2023-04-29T06:14:52;93139.69;;;10.51;50.59
40592;BME280;26301;42.832;23.918;2023-04-29T06:17:19;93138.44;;;10.70;50.74
40592;BME280;26301;42.832;23.918;2023-04-29T06:19:45;93166.22;;;11.14;50.45
40592;BME280;26301;42.832;23.918;2023-04-29T06:22:11;93166.91;;;11.26;48.76
40592;BME280;26301;42.832;23.918;2023-04-29T06:24:37;93170.13;;;11.55;48.99
40592;BME280;26301;42.832;23.918;2023-04-29T06:27:03;93135.28;;;11.63;47.51
40592;BME280;26301;42.832;23.918;2023-04-29T06:29:29;93162.66;;;12.03;47.41
40592;BME280;26301;42.832;23.918;2023-04-29T06:31:55;93151.25;;;12.26;47.42
40592;BME280;26301;42.832;23.918;2023-04-29T06:34:21;93108.69;;;12.17;45.11
40592;BME280;26301;42.832;23.918;2023-04-29T06:36:47;93145.84;;;12.59;47.44
40592;BME280;26301;42.832;23.918;2023-04-29T06:39:16;93143.19;;;12.87;46.77
40592;BME280;26301;42.832;23.918;2023-04-29T06:41:42;93153.50;;;13.14;42.52
40592;BME280;26301;42.832;23.918;2023-04-29T06:44:07;93141.47;;;13.35;45.75
40592;BME280;26301;42.832;23.918;2023-04-29T06:46:33;93138.97;;;13.55;41.77
40592;BME280;26301;42.832;23.918;2023-04-29T06:49:00;93130.50;;;13.75;38.66
40592;BME280;26301;42.832;23.918;2023-04-29T06:51:26;93101.44;;;13.78;38.60
40592;BME280;26301;42.832;23.918;2023-04-29T06:53:52;93111.63;;;14.05;41.22
40592;BME280;26301;42.832;23.918;2023-04-29T06:56:18;93104.09;;;14.04;40.41
40592;BME280;26301;42.832;23.918;2023-04-29T06:58:45;93134.00;;;14.32;35.34
40592;BME280;26301;42.832;23.918;2023-04-29T07:01:12;93129.09;;;14.46;36.36
40592;BME280;26301;42.832;23.918;2023-04-29T07:03:37;93136.91;;;14.51;35.49
40592;BME280;26301;42.832;23.918;2023-04-29T07:06:03;93135.63;;;14.53;35.20
40592;BME280;26301;42.832;23.918;2023-04-29T07:08:29;93131.22;;;14.69;33.89
40592;BME280;26301;42.832;23.918;2023-04-29T07:10:56;93113.53;;;14.71;31.99
40592;BME280;26301;42.832;23.918;2023-04-29T07:13:22;93115.84;;;14.68;31.46
40592;BME280;26301;42.832;23.918;2023-04-29T07:15:48;93124.44;;;14.99;34.53
40592;BME280;26301;42.832;23.918;2023-04-29T07:18:14;93114.28;;;15.02;32.69
40592;BME280;26301;42.832;23.918;2023-04-29T07:20:40;93119.75;;;15.11;33.73
40592;BME280;26301;42.832;23.918;2023-04-29T07:23:07;93131.41;;;15.24;33.73
40592;BME280;26301;42.832;23.918;2023-04-29T07:25:33;93123.84;;;15.27;35.64
40592;BME280;26301;42.832;23.918;2023-04-29T07:28:00;93125.94;;;15.36;33.48
40592;BME280;26301;42.832;23.918;2023-04-29T07:30:26;93121.50;;;15.41;35.95
40592;BME280;26301;42.832;23.918;2023-04-29T07:32:52;93125.09;;;15.45;33.45
40592;BME280;26301;42.832;23.918;2023-04-29T07:35:19;93100.84;;;15.60;33.75
40592;BME280;26301;42.832;23.918;2023-04-29T07:37:45;93113.75;;;15.91;38.60
40592;BME280;26301;42.832;23.918;2023-04-29T07:40:11;93092.13;;;15.95;32.62
40592;BME280;26301;42.832;23.918;2023-04-29T07:42:37;93115.75;;;16.09;34.88
40592;BME280;26301;42.832;23.918;2023-04-29T07:45:04;93114.94;;;16.19;34.29
40592;BME280;26301;42.832;23.918;2023-04-29T07:47:30;93114.34;;;16.27;32.37
40592;BME280;26301;42.832;23.918;2023-04-29T07:49:56;93096.38;;;16.26;33.01
40592;BME280;26301;42.832;23.918;2023-04-29T07:52:23;93116.63;;;16.39;32.15
40592;BME280;26301;42.832;23.918;2023-04-29T07:54:50;93126.28;;;16.33;32.29
40592;BME280;26301;42.832;23.918;2023-04-29T07:57:16;93095.56;;;16.30;31.06
40592;BME280;26301;42.832;23.918;2023-04-29T07:59:42;93125.56;;;16.67;30.08
40592;BME280;26301;42.832;23.918;2023-04-29T08:02:08;93118.44;;;16.78;31.58
40592;BME280;26301;42.832;23.918;2023-04-29T08:04:37;93086.69;;;16.71;32.23
40592;BME280;26301;42.832;23.918;2023-04-29T08:07:04;93120.44;;;16.91;31.93
40592;BME280;26301;42.832;23.918;2023-04-29T08:09:30;93112.53;;;17.01;32.50
40592;BME280;26301;42.832;23.918;2023-04-29T08:11:55;93092.38;;;17.07;31.64
40592;BME280;26301;42.832;23.918;2023-04-29T08:14:21;93109.94;;;17.25;29.52
40592;BME280;26301;42.832;23.918;2023-04-29T08:16:51;93110.69;;;17.31;30.36
40592;BME280;26301;42.832;23.918;2023-04-29T08:19:17;93091.47;;;17.22;29.42
40592;BME280;26301;42.832;23.918;2023-04-29T08:21:42;93125.19;;;17.42;30.44
40592;BME280;26301;42.832;23.918;2023-04-29T08:24:11;93049.91;;;17.01;28.12
40592;BME280;26301;42.832;23.918;2023-04-29T08:26:40;93089.03;;;17.30;31.50
40592;BME280;26301;42.832;23.918;2023-04-29T08:29:07;93112.34;;;17.46;30.85
40592;BME280;26301;42.832;23.918;2023-04-29T08:31:33;93116.56;;;17.66;31.65
40592;BME280;26301;42.832;23.918;2023-04-29T08:33:59;93110.84;;;17.88;32.92
40592;BME280;26301;42.832;23.918;2023-04-29T08:36:25;93096.00;;;17.83;30.45
40592;BME280;26301;42.832;23.918;2023-04-29T08:38:54;93104.94;;;18.01;28.54
40592;BME280;26301;42.832;23.918;2023-04-29T08:41:22;93110.25;;;18.15;28.32
40592;BME280;26301;42.832;23.918;2023-04-29T08:43:48;93103.94;;;18.16;29.07
40592;BME280;26301;42.832;23.918;2023-04-29T08:46:15;93110.56;;;17.89;28.92
40592;BME280;26301;42.832;23.918;2023-04-29T08:48:41;93065.03;;;17.71;31.98
40592;BME280;26301;42.832;23.918;2023-04-29T08:51:10;93098.94;;;18.00;29.04
40592;BME280;26301;42.832;23.918;2023-04-29T08:53:40;93104.25;;;18.33;31.42
40592;BME280;26301;42.832;23.918;2023-04-29T08:56:15;93082.13;;;18.07;28.05
40592;BME280;26301;42.832;23.918;2023-04-29T08:58:42;93098.06;;;18.05;28.94
40592;BME280;26301;42.832;23.918;2023-04-29T09:01:09;93101.63;;;18.14;29.22
40592;BME280;26301;42.832;23.918;2023-04-29T09:03:42;93091.19;;;18.14;28.81
40592;BME280;26301;42.832;23.918;2023-04-29T09:06:10;93097.44;;;18.13;30.73
40592;BME280;26301;42.832;23.918;2023-04-29T09:08:38;93094.06;;;18.13;28.25
40592;BME280;26301;42.832;23.918;2023-04-29T09:11:08;93095.19;;;18.07;27.82
40592;BME280;26301;42.832;23.918;2023-04-29T09:13:37;93067.16;;;17.93;29.71
40592;BME280;26301;42.832;23.918;2023-04-29T09:16:12;93089.19;;;18.06;29.01
40592;BME280;26301;42.832;23.918;2023-04-29T09:18:48;93079.50;;;18.07;31.93
40592;BME280;26301;42.832;23.918;2023-04-29T09:23:43;93058.41;;;18.03;28.36
40592;BME280;26301;42.832;23.918;2023-04-29T09:26:09;93078.59;;;18.16;30.74
40592;BME280;26301;42.832;23.918;2023-04-29T09:28:36;93090.66;;;18.31;29.74
40592;BME280;26301;42.832;23.918;2023-04-29T09:31:02;93078.38;;;18.32;29.64
40592;BME280;26301;42.832;23.918;2023-04-29T09:33:54;93069.63;;;18.41;28.75
40592;BME280;26301;42.832;23.918;2023-04-29T09:36:43;93074.94;;;18.69;30.32
40592;BME280;26301;42.832;23.918;2023-04-29T09:44:20;93065.75;;;19.18;29.84
40592;BME280;26301;42.832;23.918;2023-04-29T09:47:02;93034.22;;;19.09;31.65
40592;BME280;26301;42.832;23.918;2023-04-29T09:49:32;93064.94;;;19.04;27.90
40592;BME280;26301;42.832;23.918;2023-04-29T09:52:05;93050.91;;;19.13;30.84
40592;BME280;26301;42.832;23.918;2023-04-29T09:54:35;93044.81;;;19.32;30.15
40592;BME280;26301;42.832;23.918;2023-04-29T09:57:03;93032.09;;;19.25;29.56
40592;BME280;26301;42.832;23.918;2023-04-29T09:59:34;93056.03;;;19.46;25.16
40592;BME280;26301;42.832;23.918;2023-04-29T10:02:13;93035.50;;;19.39;26.80
40592;BME280;26301;42.832;23.918;2023-04-29T10:04:41;93041.50;;;19.26;25.90
40592;BME280;26301;42.832;23.918;2023-04-29T10:07:16;93034.81;;;19.34;25.86
40592;BME280;26301;42.832;23.918;2023-04-29T10:09:46;93024.25;;;19.53;26.86
40592;BME280;26301;42.832;23.918;2023-04-29T10:12:17;93005.97;;;19.61;24.18
40592;BME280;26301;42.832;23.918;2023-04-29T10:14:52;93025.00;;;19.67;25.08
40592;BME280;26301;42.832;23.918;2023-04-29T10:17:35;92973.03;;;19.47;25.95
40592;BME280;26301;42.832;23.918;2023-04-29T10:20:09;92948.13;;;19.35;26.13
40592;BME280;26301;42.832;23.918;2023-04-29T10:25:09;93027.31;;;19.82;24.37
40592;BME280;26301;42.832;23.918;2023-04-29T10:27:36;93003.47;;;19.70;26.93
40592;BME280;26301;42.832;23.918;2023-04-29T10:30:06;93010.44;;;20.11;24.62
40592;BME280;26301;42.832;23.918;2023-04-29T10:32:36;93024.53;;;19.51;22.77
40592;BME280;26301;42.832;23.918;2023-04-29T10:35:10;93023.19;;;19.26;23.94
40592;BME280;26301;42.832;23.918;2023-04-29T10:37:43;92990.97;;;18.84;20.01
40592;BME280;26301;42.832;23.918;2023-04-29T10:40:43;93019.88;;;18.60;22.13
40592;BME280;26301;42.832;23.918;2023-04-29T10:43:12;93017.75;;;18.30;23.27
40592;BME280;26301;42.832;23.918;2023-04-29T10:48:15;93016.16;;;18.15;23.18
40592;BME280;26301;42.832;23.918;2023-04-29T10:53:18;93014.56;;;18.65;22.99
40592;BME280;26301;42.832;23.918;2023-04-29T10:56:02;93012.09;;;18.41;25.09
40592;BME280;26301;42.832;23.918;2023-04-29T10:58:45;92992.00;;;18.04;25.66
40592;BME280;26301;42.832;23.918;2023-04-29T11:01:16;93023.38;;;18.37;24.76
40592;BME280;26301;42.832;23.918;2023-04-29T11:03:52;93020.47;;;18.05;26.61
40592;BME280;26301;42.832;23.918;2023-04-29T11:06:38;92992.41;;;17.73;26.61
40592;BME280;26301;42.832;23.918;2023-04-29T11:09:27;93008.53;;;17.80;27.00
40592;BME280;26301;42.832;23.918;2023-04-29T11:12:03;92992.25;;;17.65;27.56
40592;BME280;26301;42.832;23.918;2023-04-29T11:17:11;92989.25;;;17.95;26.12
40592;BME280;26301;42.832;23.918;2023-04-29T11:22:24;93014.84;;;18.31;27.50
40592;BME280;26301;42.832;23.918;2023-04-29T11:27:17;93012.59;;;18.90;26.90
40592;BME280;26301;42.832;23.918;2023-04-29T11:29:45;93000.47;;;18.94;28.61
40592;BME280;26301;42.832;23.918;2023-04-29T11:32:12;92992.25;;;18.87;29.09
40592;BME280;26301;42.832;23.918;2023-04-29T11:34:38;93013.00;;;18.97;26.07
40592;BME280;26301;42.832;23.918;2023-04-29T11:37:05;93015.56;;;18.83;27.21
40592;BME280;26301;42.832;23.918;2023-04-29T11:39:37;93004.38;;;18.64;27.50
40592;BME280;26301;42.832;23.918;2023-04-29T11:42:03;93020.34;;;18.81;27.09
40592;BME280;26301;42.832;23.918;2023-04-29T11:44:30;92994.31;;;18.71;28.86
40592;BME280;26301;42.832;23.918;2023-04-29T11:47:05;93023.06;;;18.90;27.54
40592;BME280;26301;42.832;23.918;2023-04-29T11:49:32;92990.03;;;18.47;29.19
40592;BME280;26301;42.832;23.918;2023-04-29T11:51:59;93009.28;;;18.19;28.08
40592;BME280;26301;42.832;23.918;2023-04-29T11:54:26;92920.47;;;17.24;28.07
40592;BME280;26301;42.832;23.918;2023-04-29T11:56:57;93012.41;;;18.02;28.30
40592;BME280;26301;42.832;23.918;2023-04-29T11:59:24;92989.25;;;17.95;30.14
40592;BME280;26301;42.832;23.918;2023-04-29T12:01:51;92987.03;;;18.21;28.37
40592;BME280;26301;42.832;23.918;2023-04-29T12:04:18;93004.75;;;18.57;29.68
40592;BME280;26301;42.832;23.918;2023-04-29T12:06:45;93006.34;;;18.39;28.94
40592;BME280;26301;42.832;23.918;2023-04-29T12:09:11;92979.44;;;18.39;29.19
40592;BME280;26301;42.832;23.918;2023-04-29T12:11:41;93009.56;;;18.50;28.64
40592;BME280;26301;42.832;23.918;2023-04-29T12:14:08;93009.75;;;18.40;28.93
40592;BME280;26301;42.832;23.918;2023-04-29T12:16:35;92991.19;;;18.22;28.98
40592;BME280;26301;42.832;23.918;2023-04-29T12:19:02;93003.22;;;18.23;29.36
40592;BME280;26301;42.832;23.918;2023-04-29T12:21:28;92952.16;;;17.74;28.78
40592;BME280;26301;42.832;23.918;2023-04-29T12:23:58;93001.34;;;17.91;28.87
40592;BME280;26301;42.832;23.918;2023-04-29T12:26:30;92998.50;;;18.07;30.34
40592;BME280;26301;42.832;23.918;2023-04-29T12:28:57;92998.19;;;18.27;29.45
40592;BME280;26301;42.832;23.918;2023-04-29T12:31:32;92995.50;;;18.13;29.14
40592;BME280;26301;42.832;23.918;2023-04-29T12:33:59;93001.25;;;18.15;29.84
40592;BME280;26301;42.832;23.918;2023-04-29T12:36:28;93003.53;;;17.84;30.21
40592;BME280;26301;42.832;23.918;2023-04-29T12:38:55;92986.97;;;17.70;32.59
40592;BME280;26301;42.832;23.918;2023-04-29T12:41:41;92969.63;;;17.79;29.29
40592;BME280;26301;42.832;23.918;2023-04-29T12:44:09;93003.72;;;18.07;30.17
40592;BME280;26301;42.832;23.918;2023-04-29T12:46:40;92971.31;;;17.89;30.88
40592;BME280;26301;42.832;23.918;2023-04-29T12:49:07;93004.66;;;17.97;30.39
40592;BME280;26301;42.832;23.918;2023-04-29T12:51:34;92964.03;;;17.86;30.91
40592;BME280;26301;42.832;23.918;2023-04-29T12:54:02;92897.13;;;17.52;30.78
40592;BME280;26301;42.832;23.918;2023-04-29T12:56:29;92972.50;;;18.15;30.61
40592;BME280;26301;42.832;23.918;2023-04-29T12:59:02;92981.66;;;18.13;29.38
40592;BME280;26301;42.832;23.918;2023-04-29T13:01:30;92990.81;;;17.96;31.92
40592;BME280;26301;42.832;23.918;2023-04-29T13:03:57;92981.13;;;17.97;32.17
40592;BME280;26301;42.832;23.918;2023-04-29T13:06:23;92948.66;;;17.84;32.19
40592;BME280;26301;42.832;23.918;2023-04-29T13:08:49;92985.09;;;17.94;31.43
40592;BME280;26301;42.832;23.918;2023-04-29T13:11:16;92985.78;;;18.00;31.37
40592;BME280;26301;42.832;23.918;2023-04-29T13:13:42;93001.69;;;18.03;31.82
40592;BME280;26301;42.832;23.918;2023-04-29T13:16:08;93006.47;;;17.77;32.38
40592;BME280;26301;42.832;23.918;2023-04-29T13:18:35;93001.78;;;17.74;31.88
40592;BME280;26301;42.832;23.918;2023-04-29T13:21:01;93000.75;;;17.08;32.57
40592;BME280;26301;42.832;23.918;2023-04-29T13:23:27;92981.84;;;16.98;32.81
40592;BME280;26301;42.832;23.918;2023-04-29T13:25:56;93006.88;;;16.69;33.97
40592;BME280;26301;42.832;23.918;2023-04-29T13:28:22;92959.63;;;16.18;33.82
40592;BME280;26301;42.832;23.918;2023-04-29T13:30:48;92915.69;;;16.06;34.81
40592;BME280;26301;42.832;23.918;2023-04-29T13:33:15;92974.72;;;16.50;35.75
40592;BME280;26301;42.832;23.918;2023-04-29T13:35:44;93001.81;;;16.83;35.67
40592;BME280;26301;42.832;23.918;2023-04-29T13:38:11;92999.00;;;16.75;35.77